sensor_id;sensor_type;location;lat;lon;timestamp;temperature;humidity
45329;DHT22;72636;48.160;11.428;2024-02-16T00:01:41;6.50;99.90
45329;DHT22;72636;48.160;11.428;2024-02-16T00:04:06;6.40;99.90
45329;DHT22;72636;48.160;11.428;2024-02-16T00:06:33;6.40;99.90
45329;DHT22;72636;48.160;11.428;2024-02-16T00:08:59;6.40;99.90
45329;DHT22;72636;48.160;11.428;2024-02-16T00:11:25;6.40;99.90
45329;DHT22;72636;48.160;11.428;2024-02-16T00:13:51;6.40;99.90
45329;DHT22;72636;48.160;11.428;2024-02-16T00:16:17;6.40;99.90
45329;DHT22;72636;48.160;11.428;2024-02-16T00:18:43;6.30;99.90
45329;DHT22;72636;48.160;11.428;2024-02-16T00:21:09;6.30;99.90
45329;DHT22;72636;48.160;11.428;2024-02-16T00:23:34;6.30;99.90
45329;DHT22;72636;48.160;11.428;2024-02-16T00:26:01;6.30;99.90
45329;DHT22;72636;48.160;11.428;2024-02-16T00:28:26;6.30;99.90
45329;DHT22;72636;48.160;11.428;2024-02-16T00:30:52;6.30;99.90
45329;DHT22;72636;48.160;11.428;2024-02-16T00:33:17;6.30;99.90
45329;DHT22;72636;48.160;11.428;2024-02-16T00:35:44;6.30;99.90
45329;DHT22;72636;48.160;11.428;2024-02-16T00:38:10;6.30;99.90
45329;DHT22;72636;48.160;11.428;2024-02-16T00:40:35;6.30;99.90
45329;DHT22;72636;48.160;11.428;2024-02-16T00:43:03;6.20;99.90
45329;DHT22;72636;48.160;11.428;2024-02-16T00:45:28;6.20;99.90
45329;DHT22;72636;48.160;11.428;2024-02-16T00:47:54;6.20;99.90
45329;DHT22;72636;48.160;11.428;2024-02-16T00:50:21;6.20;99.90
45329;DHT22;72636;48.160;11.428;2024-02-16T00:52:46;6.20;99.90
45329;DHT22;72636;48.160;11.428;2024-02-16T00:55:12;6.20;99.90
45329;DHT22;72636;48.160;11.428;2024-02-16T00:57:38;6.10;99.90
45329;DHT22;72636;48.160;11.428;2024-02-16T01:00:05;6.20;99.90
45329;DHT22;72636;48.160;11.428;2024-02-16T01:02:30;6.20;99.90
45329;DHT22;72636;48.160;11.428;2024-02-16T01:04:57;6.20;99.90
45329;DHT22;72636;48.160;11.428;2024-02-16T01:07:27;6.10;99.90
45329;DHT22;72636;48.160;11.428;2024-02-16T01:09:53;6.10;99.90
45329;DHT22;72636;48.160;11.428;2024-02-16T01:12:19;6.10;99.90
45329;DHT22;72636;48.160;11.428;2024-02-16T01:14:45;6.10;99.90
45329;DHT22;72636;48.160;11.428;2024-02-16T01:17:10;6.20;99.90
45329;DHT22;72636;48.160;11.428;2024-02-16T01:19:36;6.10;99.90
45329;DHT22;72636;48.160;11.428;2024-02-16T01:22:02;6.10;99.90
45329;DHT22;72636;48.160;11.428;2024-02-16T01:24:28;6.20;99.90
45329;DHT22;72636;48.160;11.428;2024-02-16T01:26:53;6.20;99.90
45329;DHT22;72636;48.160;11.428;2024-02-16T01:29:19;6.10;99.90
45329;DHT22;72636;48.160;11.428;2024-02-16T01:31:45;6.10;99.90
45329;DHT22;72636;48.160;11.428;2024-02-16T01:34:11;6.10;99.90
45329;DHT22;72636;48.160;11.428;2024-02-16T01:36:36;6.20;99.90
45329;DHT22;72636;48.160;11.428;2024-02-16T01:39:02;6.20;99.90
45329;DHT22;72636;48.160;11.428;2024-02-16T01:41:28;6.20;99.90
45329;DHT22;72636;48.160;11.428;2024-02-16T01:43:54;6.20;99.90
45329;DHT22;72636;48.160;11.428;2024-02-16T01:46:20;6.20;99.90
45329;DHT22;72636;48.160;11.428;2024-02-16T01:48:46;6.20;99.90
45329;DHT22;72636;48.160;11.428;2024-02-16T01:51:13;6.20;99.90
45329;DHT22;72636;48.160;11.428;2024-02-16T01:53:39;6.20;99.90
45329;DHT22;72636;48.160;11.428;2024-02-16T01:56:06;6.20;99.90
45329;DHT22;72636;48.160;11.428;2024-02-16T01:58:33;6.20;99.90
45329;DHT22;72636;48.160;11.428;2024-02-16T02:00:58;6.20;99.90
45329;DHT22;72636;48.160;11.428;2024-02-16T02:03:24;6.20;99.90
45329;DHT22;72636;48.160;11.428;2024-02-16T02:05:49;6.20;99.90
45329;DHT22;72636;48.160;11.428;2024-02-16T02:08:16;6.20;99.90
45329;DHT22;72636;48.160;11.428;2024-02-16T02:10:42;6.20;99.90
45329;DHT22;72636;48.160;11.428;2024-02-16T02:13:08;6.30;99.90
45329;DHT22;72636;48.160;11.428;2024-02-16T02:15:34;6.30;99.90
45329;DHT22;72636;48.160;11.428;2024-02-16T02:18:00;6.30;99.90
45329;DHT22;72636;48.160;11.428;2024-02-16T02:20:26;6.30;99.90
45329;DHT22;72636;48.160;11.428;2024-02-16T02:22:51;6.30;99.90
45329;DHT22;72636;48.160;11.428;2024-02-16T02:25:17;6.40;99.90
45329;DHT22;72636;48.160;11.428;2024-02-16T02:27:42;6.40;99.90
45329;DHT22;72636;48.160;11.428;2024-02-16T02:30:09;6.40;99.90
45329;DHT22;72636;48.160;11.428;2024-02-16T02:32:34;6.40;99.90
45329;DHT22;72636;48.160;11.428;2024-02-16T02:35:01;6.40;99.90
45329;DHT22;72636;48.160;11.428;2024-02-16T02:37:27;6.40;99.90
45329;DHT22;72636;48.160;11.428;2024-02-16T02:39:53;6.40;99.90
45329;DHT22;72636;48.160;11.428;2024-02-16T02:42:18;6.40;99.90
45329;DHT22;72636;48.160;11.428;2024-02-16T02:44:45;6.30;99.90
45329;DHT22;72636;48.160;11.428;2024-02-16T02:47:15;6.30;99.90
45329;DHT22;72636;48.160;11.428;2024-02-16T02:49:42;6.30;99.90
45329;DHT22;72636;48.160;11.428;2024-02-16T02:52:08;6.30;99.90
45329;DHT22;72636;48.160;11.428;2024-02-16T02:54:34;6.20;99.90
45329;DHT22;72636;48.160;11.428;2024-02-16T02:57:01;6.20;99.90
45329;DHT22;72636;48.160;11.428;2024-02-16T02:59:27;6.10;99.90
45329;DHT22;72636;48.160;11.428;2024-02-16T03:01:53;6.10;99.90
45329;DHT22;72636;48.160;11.428;2024-02-16T03:04:19;6.10;99.90
45329;DHT22;72636;48.160;11.428;2024-02-16T03:06:44;6.10;99.90
45329;DHT22;72636;48.160;11.428;2024-02-16T03:09:11;6.10;99.90
45329;DHT22;72636;48.160;11.428;2024-02-16T03:11:38;6.10;99.90
45329;DHT22;72636;48.160;11.428;2024-02-16T03:14:04;6.10;99.90
45329;DHT22;72636;48.160;11.428;2024-02-16T03:16:31;6.10;99.90
45329;DHT22;72636;48.160;11.428;2024-02-16T03:18:57;6.10;99.90
45329;DHT22;72636;48.160;11.428;2024-02-16T03:21:22;6.10;99.90
45329;DHT22;72636;48.160;11.428;2024-02-16T03:23:48;6.10;99.90
45329;DHT22;72636;48.160;11.428;2024-02-16T03:26:15;6.10;99.90
45329;DHT22;72636;48.160;11.428;2024-02-16T03:28:43;6.10;99.90
45329;DHT22;72636;48.160;11.428;2024-02-16T03:31:22;6.10;99.90
45329;DHT22;72636;48.160;11.428;2024-02-16T03:33:49;6.10;99.90
45329;DHT22;72636;48.160;11.428;2024-02-16T03:36:15;6.20;99.90
45329;DHT22;72636;48.160;11.428;2024-02-16T03:38:45;6.20;99.90
45329;DHT22;72636;48.160;11.428;2024-02-16T03:41:17;6.20;99.90
45329;DHT22;72636;48.160;11.428;2024-02-16T03:43:43;6.20;99.90
45329;DHT22;72636;48.160;11.428;2024-02-16T03:46:09;6.20;99.90
45329;DHT22;72636;48.160;11.428;2024-02-16T03:48:35;6.20;99.90
45329;DHT22;72636;48.160;11.428;2024-02-16T03:51:01;6.20;99.90
45329;DHT22;72636;48.160;11.428;2024-02-16T03:53:28;6.20;99.90
45329;DHT22;72636;48.160;11.428;2024-02-16T03:55:54;6.20;99.90
45329;DHT22;72636;48.160;11.428;2024-02-16T03:58:19;6.20;99.90
45329;DHT22;72636;48.160;11.428;2024-02-16T04:00:45;6.20;99.90
45329;DHT22;72636;48.160;11.428;2024-02-16T04:03:11;6.20;99.90
45329;DHT22;72636;48.160;11.428;2024-02-16T04:05:40;6.10;99.90
45329;DHT22;72636;48.160;11.428;2024-02-16T04:08:06;6.20;99.90
45329;DHT22;72636;48.160;11.428;2024-02-16T04:10:33;6.20;99.90
45329;DHT22;72636;48.160;11.428;2024-02-16T04:12:59;6.20;99.90
45329;DHT22;72636;48.160;11.428;2024-02-16T04:15:26;6.20;99.90
45329;DHT22;72636;48.160;11.428;2024-02-16T04:17:52;6.20;99.90
45329;DHT22;72636;48.160;11.428;2024-02-16T04:20:18;6.30;99.90
45329;DHT22;72636;48.160;11.428;2024-02-16T04:22:44;6.30;99.90
45329;DHT22;72636;48.160;11.428;2024-02-16T04:25:10;6.30;99.90
45329;DHT22;72636;48.160;11.428;2024-02-16T04:27:36;6.30;99.90
45329;DHT22;72636;48.160;11.428;2024-02-16T04:30:05;6.30;99.90
45329;DHT22;72636;48.160;11.428;2024-02-16T04:32:31;6.40;99.90
45329;DHT22;72636;48.160;11.428;2024-02-16T04:34:58;6.40;99.90
45329;DHT22;72636;48.160;11.428;2024-02-16T04:37:27;6.40;99.90
45329;DHT22;72636;48.160;11.428;2024-02-16T04:39:52;6.40;99.90
45329;DHT22;72636;48.160;11.428;2024-02-16T04:42:18;6.40;99.90
45329;DHT22;72636;48.160;11.428;2024-02-16T04:44:44;6.50;99.90
45329;DHT22;72636;48.160;11.428;2024-02-16T04:47:10;6.50;99.90
45329;DHT22;72636;48.160;11.428;2024-02-16T04:49:35;6.50;99.90
45329;DHT22;72636;48.160;11.428;2024-02-16T04:52:02;6.50;99.90
45329;DHT22;72636;48.160;11.428;2024-02-16T04:54:28;6.50;99.90
45329;DHT22;72636;48.160;11.428;2024-02-16T04:56:54;6.50;99.90
45329;DHT22;72636;48.160;11.428;2024-02-16T04:59:20;6.60;99.90
45329;DHT22;72636;48.160;11.428;2024-02-16T05:01:46;6.60;99.90
45329;DHT22;72636;48.160;11.428;2024-02-16T05:04:12;6.70;99.90
45329;DHT22;72636;48.160;11.428;2024-02-16T05:06:41;6.70;99.90
45329;DHT22;72636;48.160;11.428;2024-02-16T05:09:07;6.70;99.90
45329;DHT22;72636;48.160;11.428;2024-02-16T05:11:33;6.70;99.90
45329;DHT22;72636;48.160;11.428;2024-02-16T05:13:59;6.80;99.90
45329;DHT22;72636;48.160;11.428;2024-02-16T05:16:25;6.70;99.90
45329;DHT22;72636;48.160;11.428;2024-02-16T05:18:51;6.80;99.90
45329;DHT22;72636;48.160;11.428;2024-02-16T05:21:17;6.80;99.90
45329;DHT22;72636;48.160;11.428;2024-02-16T05:23:42;6.80;99.90
45329;DHT22;72636;48.160;11.428;2024-02-16T05:26:08;6.80;99.90
45329;DHT22;72636;48.160;11.428;2024-02-16T05:28:33;6.80;99.90
45329;DHT22;72636;48.160;11.428;2024-02-16T05:31:15;6.80;99.90
45329;DHT22;72636;48.160;11.428;2024-02-16T05:33:45;6.80;99.90
45329;DHT22;72636;48.160;11.428;2024-02-16T05:36:11;6.80;99.90
45329;DHT22;72636;48.160;11.428;2024-02-16T05:38:38;6.80;99.90
45329;DHT22;72636;48.160;11.428;2024-02-16T05:41:07;6.80;99.90
45329;DHT22;72636;48.160;11.428;2024-02-16T05:43:33;6.80;99.90
45329;DHT22;72636;48.160;11.428;2024-02-16T05:45:59;6.80;99.90
45329;DHT22;72636;48.160;11.428;2024-02-16T05:48:25;6.80;99.90
45329;DHT22;72636;48.160;11.428;2024-02-16T05:50:53;6.80;99.90
45329;DHT22;72636;48.160;11.428;2024-02-16T05:53:21;6.80;99.90
45329;DHT22;72636;48.160;11.428;2024-02-16T05:55:47;6.90;99.90
45329;DHT22;72636;48.160;11.428;2024-02-16T05:58:13;6.90;99.90
45329;DHT22;72636;48.160;11.428;2024-02-16T06:00:38;6.90;99.90
45329;DHT22;72636;48.160;11.428;2024-02-16T06:03:04;6.90;99.90
45329;DHT22;72636;48.160;11.428;2024-02-16T06:05:30;6.80;99.90
45329;DHT22;72636;48.160;11.428;2024-02-16T06:07:55;6.90;99.90
45329;DHT22;72636;48.160;11.428;2024-02-16T06:10:22;6.90;99.90
45329;DHT22;72636;48.160;11.428;2024-02-16T06:12:48;6.90;99.90
45329;DHT22;72636;48.160;11.428;2024-02-16T06:15:13;7.00;99.90
45329;DHT22;72636;48.160;11.428;2024-02-16T06:17:40;7.00;99.90
45329;DHT22;72636;48.160;11.428;2024-02-16T06:20:06;6.90;99.90
45329;DHT22;72636;48.160;11.428;2024-02-16T06:22:35;6.90;99.90
45329;DHT22;72636;48.160;11.428;2024-02-16T06:25:01;7.00;99.90
45329;DHT22;72636;48.160;11.428;2024-02-16T06:27:26;7.00;99.90
45329;DHT22;72636;48.160;11.428;2024-02-16T06:29:52;7.00;99.90
45329;DHT22;72636;48.160;11.428;2024-02-16T06:32:17;7.00;99.90
45329;DHT22;72636;48.160;11.428;2024-02-16T06:34:43;7.00;99.90
45329;DHT22;72636;48.160;11.428;2024-02-16T06:37:11;7.00;99.90
45329;DHT22;72636;48.160;11.428;2024-02-16T06:39:37;7.00;99.90
45329;DHT22;72636;48.160;11.428;2024-02-16T06:42:02;7.00;99.90
45329;DHT22;72636;48.160;11.428;2024-02-16T06:44:29;7.00;99.90
45329;DHT22;72636;48.160;11.428;2024-02-16T06:46:55;7.10;99.90
45329;DHT22;72636;48.160;11.428;2024-02-16T06:49:20;7.10;99.90
45329;DHT22;72636;48.160;11.428;2024-02-16T06:51:46;7.10;99.90
45329;DHT22;72636;48.160;11.428;2024-02-16T06:54:12;7.20;99.90
45329;DHT22;72636;48.160;11.428;2024-02-16T06:56:38;7.20;99.90
45329;DHT22;72636;48.160;11.428;2024-02-16T06:59:03;7.30;99.90
45329;DHT22;72636;48.160;11.428;2024-02-16T07:01:29;7.30;99.90
45329;DHT22;72636;48.160;11.428;2024-02-16T07:03:55;7.30;99.90
45329;DHT22;72636;48.160;11.428;2024-02-16T07:06:21;7.40;99.90
45329;DHT22;72636;48.160;11.428;2024-02-16T07:08:47;7.40;99.90
45329;DHT22;72636;48.160;11.428;2024-02-16T07:11:13;7.50;99.90
45329;DHT22;72636;48.160;11.428;2024-02-16T07:13:39;7.50;99.90
45329;DHT22;72636;48.160;11.428;2024-02-16T07:16:06;7.60;99.90
45329;DHT22;72636;48.160;11.428;2024-02-16T07:18:34;7.60;99.90
45329;DHT22;72636;48.160;11.428;2024-02-16T07:21:01;7.60;99.90
45329;DHT22;72636;48.160;11.428;2024-02-16T07:23:27;7.70;99.90
45329;DHT22;72636;48.160;11.428;2024-02-16T07:25:53;7.80;99.90
45329;DHT22;72636;48.160;11.428;2024-02-16T07:28:24;7.90;99.90
45329;DHT22;72636;48.160;11.428;2024-02-16T07:30:50;7.90;99.90
45329;DHT22;72636;48.160;11.428;2024-02-16T07:33:16;8.00;99.90
45329;DHT22;72636;48.160;11.428;2024-02-16T07:35:42;8.10;99.90
45329;DHT22;72636;48.160;11.428;2024-02-16T07:38:07;8.10;99.90
45329;DHT22;72636;48.160;11.428;2024-02-16T07:40:33;8.20;99.90
45329;DHT22;72636;48.160;11.428;2024-02-16T07:42:59;8.30;99.90
45329;DHT22;72636;48.160;11.428;2024-02-16T07:45:26;8.30;99.90
45329;DHT22;72636;48.160;11.428;2024-02-16T07:47:51;8.40;99.90
45329;DHT22;72636;48.160;11.428;2024-02-16T07:50:21;8.50;99.90
45329;DHT22;72636;48.160;11.428;2024-02-16T07:52:47;8.50;99.90
45329;DHT22;72636;48.160;11.428;2024-02-16T07:55:13;8.60;99.90
45329;DHT22;72636;48.160;11.428;2024-02-16T07:57:39;8.70;99.90
45329;DHT22;72636;48.160;11.428;2024-02-16T08:00:05;8.70;99.90
45329;DHT22;72636;48.160;11.428;2024-02-16T08:02:31;8.80;99.90
45329;DHT22;72636;48.160;11.428;2024-02-16T08:04:58;8.80;99.90
45329;DHT22;72636;48.160;11.428;2024-02-16T08:07:24;8.90;99.90
45329;DHT22;72636;48.160;11.428;2024-02-16T08:09:49;9.00;99.90
45329;DHT22;72636;48.160;11.428;2024-02-16T08:12:16;9.00;99.90
45329;DHT22;72636;48.160;11.428;2024-02-16T08:14:42;9.10;99.90
45329;DHT22;72636;48.160;11.428;2024-02-16T08:17:08;9.20;99.90
45329;DHT22;72636;48.160;11.428;2024-02-16T08:19:35;9.30;99.90
45329;DHT22;72636;48.160;11.428;2024-02-16T08:22:02;9.40;99.90
45329;DHT22;72636;48.160;11.428;2024-02-16T08:24:33;9.50;99.90
45329;DHT22;72636;48.160;11.428;2024-02-16T08:26:59;9.50;99.90
45329;DHT22;72636;48.160;11.428;2024-02-16T08:29:25;9.60;99.90
45329;DHT22;72636;48.160;11.428;2024-02-16T08:31:54;9.70;99.90
45329;DHT22;72636;48.160;11.428;2024-02-16T08:34:20;9.80;99.90
45329;DHT22;72636;48.160;11.428;2024-02-16T08:36:47;9.90;99.90
45329;DHT22;72636;48.160;11.428;2024-02-16T08:39:13;10.00;99.90
45329;DHT22;72636;48.160;11.428;2024-02-16T08:41:39;10.10;99.90
45329;DHT22;72636;48.160;11.428;2024-02-16T08:44:06;10.20;99.90
45329;DHT22;72636;48.160;11.428;2024-02-16T08:46:38;10.30;99.90
45329;DHT22;72636;48.160;11.428;2024-02-16T08:49:05;10.40;99.90
45329;DHT22;72636;48.160;11.428;2024-02-16T08:51:34;10.50;99.90
45329;DHT22;72636;48.160;11.428;2024-02-16T08:54:00;10.70;99.90
45329;DHT22;72636;48.160;11.428;2024-02-16T08:56:29;10.70;99.90
45329;DHT22;72636;48.160;11.428;2024-02-16T08:58:55;10.90;99.90
45329;DHT22;72636;48.160;11.428;2024-02-16T09:01:37;11.00;99.90
45329;DHT22;72636;48.160;11.428;2024-02-16T09:04:03;11.10;99.90
45329;DHT22;72636;48.160;11.428;2024-02-16T09:06:29;11.20;99.90
45329;DHT22;72636;48.160;11.428;2024-02-16T09:08:55;11.30;99.90
45329;DHT22;72636;48.160;11.428;2024-02-16T09:11:22;11.40;99.90
45329;DHT22;72636;48.160;11.428;2024-02-16T09:13:48;11.50;99.90
45329;DHT22;72636;48.160;11.428;2024-02-16T09:16:14;11.70;99.90
45329;DHT22;72636;48.160;11.428;2024-02-16T09:18:40;11.70;99.90
45329;DHT22;72636;48.160;11.428;2024-02-16T09:21:06;11.90;99.90
45329;DHT22;72636;48.160;11.428;2024-02-16T09:23:33;12.00;99.90
45329;DHT22;72636;48.160;11.428;2024-02-16T09:25:59;12.20;99.90
45329;DHT22;72636;48.160;11.428;2024-02-16T09:28:28;12.30;99.90
45329;DHT22;72636;48.160;11.428;2024-02-16T09:30:55;12.50;99.90
45329;DHT22;72636;48.160;11.428;2024-02-16T09:33:21;12.70;99.90
45329;DHT22;72636;48.160;11.428;2024-02-16T09:35:47;12.90;99.90
45329;DHT22;72636;48.160;11.428;2024-02-16T09:38:13;13.20;99.90
45329;DHT22;72636;48.160;11.428;2024-02-16T09:40:39;13.60;99.90
45329;DHT22;72636;48.160;11.428;2024-02-16T09:43:05;14.00;99.90
45329;DHT22;72636;48.160;11.428;2024-02-16T09:45:32;14.30;99.90
45329;DHT22;72636;48.160;11.428;2024-02-16T09:47:58;14.50;99.90
45329;DHT22;72636;48.160;11.428;2024-02-16T09:50:24;14.60;99.90
45329;DHT22;72636;48.160;11.428;2024-02-16T09:52:52;14.80;99.90
45329;DHT22;72636;48.160;11.428;2024-02-16T09:55:19;14.90;99.90
45329;DHT22;72636;48.160;11.428;2024-02-16T09:57:45;15.20;99.90
45329;DHT22;72636;48.160;11.428;2024-02-16T10:00:12;15.30;99.90
45329;DHT22;72636;48.160;11.428;2024-02-16T10:02:45;15.70;99.90
45329;DHT22;72636;48.160;11.428;2024-02-16T10:05:16;16.00;99.90
45329;DHT22;72636;48.160;11.428;2024-02-16T10:07:43;16.30;99.90
45329;DHT22;72636;48.160;11.428;2024-02-16T10:10:26;16.50;99.90
45329;DHT22;72636;48.160;11.428;2024-02-16T10:13:07;16.90;99.90
45329;DHT22;72636;48.160;11.428;2024-02-16T10:15:36;17.30;98.90
45329;DHT22;72636;48.160;11.428;2024-02-16T10:18:06;17.70;96.20
45329;DHT22;72636;48.160;11.428;2024-02-16T10:20:33;18.30;94.80
45329;DHT22;72636;48.160;11.428;2024-02-16T10:23:09;18.90;83.60
45329;DHT22;72636;48.160;11.428;2024-02-16T10:25:36;19.50;76.00
45329;DHT22;72636;48.160;11.428;2024-02-16T10:28:10;19.90;65.00
45329;DHT22;72636;48.160;11.428;2024-02-16T10:30:38;20.10;64.60
45329;DHT22;72636;48.160;11.428;2024-02-16T10:33:05;20.50;63.20
45329;DHT22;72636;48.160;11.428;2024-02-16T10:35:35;21.00;55.00
45329;DHT22;72636;48.160;11.428;2024-02-16T10:38:03;21.60;55.90
45329;DHT22;72636;48.160;11.428;2024-02-16T10:40:40;22.20;47.20
45329;DHT22;72636;48.160;11.428;2024-02-16T10:43:07;22.80;44.60
45329;DHT22;72636;48.160;11.428;2024-02-16T10:45:37;23.30;43.00
45329;DHT22;72636;48.160;11.428;2024-02-16T10:48:04;24.20;41.10
45329;DHT22;72636;48.160;11.428;2024-02-16T10:50:32;24.80;38.00
45329;DHT22;72636;48.160;11.428;2024-02-16T10:53:16;25.50;37.60
45329;DHT22;72636;48.160;11.428;2024-02-16T10:55:43;26.10;33.90
45329;DHT22;72636;48.160;11.428;2024-02-16T10:58:10;26.70;32.30
45329;DHT22;72636;48.160;11.428;2024-02-16T11:00:36;27.10;28.10
45329;DHT22;72636;48.160;11.428;2024-02-16T11:03:03;27.20;27.50
45329;DHT22;72636;48.160;11.428;2024-02-16T11:05:36;27.20;26.40
45329;DHT22;72636;48.160;11.428;2024-02-16T11:08:03;27.20;27.40
45329;DHT22;72636;48.160;11.428;2024-02-16T11:10:29;26.70;26.10
45329;DHT22;72636;48.160;11.428;2024-02-16T11:13:01;26.10;26.40
45329;DHT22;72636;48.160;11.428;2024-02-16T11:15:33;25.40;27.20
45329;DHT22;72636;48.160;11.428;2024-02-16T11:18:03;24.70;29.30
45329;DHT22;72636;48.160;11.428;2024-02-16T11:20:37;24.00;29.80
45329;DHT22;72636;48.160;11.428;2024-02-16T11:23:08;23.70;32.70
45329;DHT22;72636;48.160;11.428;2024-02-16T11:25:34;23.60;32.70
45329;DHT22;72636;48.160;11.428;2024-02-16T11:28:02;23.90;32.40
45329;DHT22;72636;48.160;11.428;2024-02-16T11:30:32;23.90;31.70
45329;DHT22;72636;48.160;11.428;2024-02-16T11:32:59;24.00;34.40
45329;DHT22;72636;48.160;11.428;2024-02-16T11:35:25;23.60;34.00
45329;DHT22;72636;48.160;11.428;2024-02-16T11:37:51;23.20;33.00
45329;DHT22;72636;48.160;11.428;2024-02-16T11:40:16;22.80;35.00
45329;DHT22;72636;48.160;11.428;2024-02-16T11:42:42;22.30;35.80
45329;DHT22;72636;48.160;11.428;2024-02-16T11:45:12;21.90;37.70
45329;DHT22;72636;48.160;11.428;2024-02-16T11:47:38;21.60;40.60
45329;DHT22;72636;48.160;11.428;2024-02-16T11:50:08;21.60;44.10
45329;DHT22;72636;48.160;11.428;2024-02-16T11:52:38;21.50;41.60
45329;DHT22;72636;48.160;11.428;2024-02-16T11:55:08;21.30;42.20
45329;DHT22;72636;48.160;11.428;2024-02-16T11:57:35;21.20;43.00
45329;DHT22;72636;48.160;11.428;2024-02-16T12:00:01;21.20;45.40
45329;DHT22;72636;48.160;11.428;2024-02-16T12:02:35;21.40;44.10
45329;DHT22;72636;48.160;11.428;2024-02-16T12:05:02;21.60;42.40
45329;DHT22;72636;48.160;11.428;2024-02-16T12:07:28;21.60;42.60
45329;DHT22;72636;48.160;11.428;2024-02-16T12:09:57;21.80;43.40
45329;DHT22;72636;48.160;11.428;2024-02-16T12:12:24;21.80;42.80
45329;DHT22;72636;48.160;11.428;2024-02-16T12:14:49;21.80;42.50
45329;DHT22;72636;48.160;11.428;2024-02-16T12:17:15;21.80;44.00
45329;DHT22;72636;48.160;11.428;2024-02-16T12:19:47;21.70;42.40
45329;DHT22;72636;48.160;11.428;2024-02-16T12:22:17;21.50;45.30
45329;DHT22;72636;48.160;11.428;2024-02-16T12:24:45;21.40;43.50
45329;DHT22;72636;48.160;11.428;2024-02-16T12:27:10;21.60;47.00
45329;DHT22;72636;48.160;11.428;2024-02-16T12:29:36;22.10;47.10
45329;DHT22;72636;48.160;11.428;2024-02-16T12:32:02;23.00;44.90
45329;DHT22;72636;48.160;11.428;2024-02-16T12:34:27;24.30;37.10
45329;DHT22;72636;48.160;11.428;2024-02-16T12:36:53;25.50;35.90
45329;DHT22;72636;48.160;11.428;2024-02-16T12:39:19;26.60;31.30
45329;DHT22;72636;48.160;11.428;2024-02-16T12:41:46;27.30;28.00
45329;DHT22;72636;48.160;11.428;2024-02-16T12:44:12;28.40;24.70
45329;DHT22;72636;48.160;11.428;2024-02-16T12:46:37;28.50;24.80
45329;DHT22;72636;48.160;11.428;2024-02-16T12:49:04;29.40;24.60
45329;DHT22;72636;48.160;11.428;2024-02-16T12:51:30;29.90;22.90
45329;DHT22;72636;48.160;11.428;2024-02-16T12:53:56;30.10;21.60
45329;DHT22;72636;48.160;11.428;2024-02-16T12:56:21;30.40;23.30
45329;DHT22;72636;48.160;11.428;2024-02-16T12:58:47;30.30;21.00
45329;DHT22;72636;48.160;11.428;2024-02-16T13:01:13;30.40;22.10
45329;DHT22;72636;48.160;11.428;2024-02-16T13:03:39;30.70;21.20
45329;DHT22;72636;48.160;11.428;2024-02-16T13:06:05;30.80;20.20
45329;DHT22;72636;48.160;11.428;2024-02-16T13:08:31;31.00;22.20
45329;DHT22;72636;48.160;11.428;2024-02-16T13:10:57;31.30;21.70
45329;DHT22;72636;48.160;11.428;2024-02-16T13:13:24;31.90;22.20
45329;DHT22;72636;48.160;11.428;2024-02-16T13:15:49;32.30;20.80
45329;DHT22;72636;48.160;11.428;2024-02-16T13:18:16;32.60;20.70
45329;DHT22;72636;48.160;11.428;2024-02-16T13:20:43;32.70;20.10
45329;DHT22;72636;48.160;11.428;2024-02-16T13:23:09;32.70;20.40
45329;DHT22;72636;48.160;11.428;2024-02-16T13:25:35;32.20;19.30
45329;DHT22;72636;48.160;11.428;2024-02-16T13:28:02;30.80;19.80
45329;DHT22;72636;48.160;11.428;2024-02-16T13:30:27;30.00;21.90
45329;DHT22;72636;48.160;11.428;2024-02-16T13:32:53;29.40;22.70
45329;DHT22;72636;48.160;11.428;2024-02-16T13:35:19;28.70;23.80
45329;DHT22;72636;48.160;11.428;2024-02-16T13:37:45;28.00;25.90
45329;DHT22;72636;48.160;11.428;2024-02-16T13:40:11;27.40;24.60
45329;DHT22;72636;48.160;11.428;2024-02-16T13:42:41;26.70;26.40
45329;DHT22;72636;48.160;11.428;2024-02-16T13:45:08;26.00;26.50
45329;DHT22;72636;48.160;11.428;2024-02-16T13:47:34;25.30;29.70
45329;DHT22;72636;48.160;11.428;2024-02-16T13:50:00;24.50;28.40
45329;DHT22;72636;48.160;11.428;2024-02-16T13:52:26;23.70;30.10
45329;DHT22;72636;48.160;11.428;2024-02-16T13:54:52;23.20;31.90
45329;DHT22;72636;48.160;11.428;2024-02-16T13:57:18;22.80;33.80
45329;DHT22;72636;48.160;11.428;2024-02-16T13:59:45;22.30;34.50
45329;DHT22;72636;48.160;11.428;2024-02-16T14:02:11;21.80;37.40
45329;DHT22;72636;48.160;11.428;2024-02-16T14:04:37;21.50;38.10
45329;DHT22;72636;48.160;11.428;2024-02-16T14:07:04;21.30;40.90
45329;DHT22;72636;48.160;11.428;2024-02-16T14:09:30;21.00;42.70
45329;DHT22;72636;48.160;11.428;2024-02-16T14:11:56;20.80;43.40
45329;DHT22;72636;48.160;11.428;2024-02-16T14:14:24;20.60;44.30
45329;DHT22;72636;48.160;11.428;2024-02-16T14:16:50;20.50;45.70
45329;DHT22;72636;48.160;11.428;2024-02-16T14:19:16;20.40;46.30
45329;DHT22;72636;48.160;11.428;2024-02-16T14:21:43;20.40;47.50
45329;DHT22;72636;48.160;11.428;2024-02-16T14:24:09;20.50;51.10
45329;DHT22;72636;48.160;11.428;2024-02-16T14:26:36;20.60;48.80
45329;DHT22;72636;48.160;11.428;2024-02-16T14:29:04;20.80;47.70
45329;DHT22;72636;48.160;11.428;2024-02-16T14:31:29;20.90;49.80
45329;DHT22;72636;48.160;11.428;2024-02-16T14:33:55;21.00;48.70
45329;DHT22;72636;48.160;11.428;2024-02-16T14:36:21;21.20;48.40
45329;DHT22;72636;48.160;11.428;2024-02-16T14:38:47;21.20;48.10
45329;DHT22;72636;48.160;11.428;2024-02-16T14:41:13;21.20;48.30
45329;DHT22;72636;48.160;11.428;2024-02-16T14:43:41;21.10;48.70
45329;DHT22;72636;48.160;11.428;2024-02-16T14:46:07;21.10;50.90
45329;DHT22;72636;48.160;11.428;2024-02-16T14:48:33;20.90;49.80
45329;DHT22;72636;48.160;11.428;2024-02-16T14:50:59;20.70;50.60
45329;DHT22;72636;48.160;11.428;2024-02-16T14:53:25;20.50;50.20
45329;DHT22;72636;48.160;11.428;2024-02-16T14:55:51;20.30;51.90
45329;DHT22;72636;48.160;11.428;2024-02-16T14:58:17;20.10;50.40
45329;DHT22;72636;48.160;11.428;2024-02-16T15:00:43;19.90;50.90
45329;DHT22;72636;48.160;11.428;2024-02-16T15:03:12;19.80;53.00
45329;DHT22;72636;48.160;11.428;2024-02-16T15:05:39;19.60;54.70
45329;DHT22;72636;48.160;11.428;2024-02-16T15:08:06;19.40;55.00
45329;DHT22;72636;48.160;11.428;2024-02-16T15:10:32;19.20;55.50
45329;DHT22;72636;48.160;11.428;2024-02-16T15:12:57;19.10;56.90
45329;DHT22;72636;48.160;11.428;2024-02-16T15:15:23;18.90;58.30
45329;DHT22;72636;48.160;11.428;2024-02-16T15:17:49;18.70;59.10
45329;DHT22;72636;48.160;11.428;2024-02-16T15:20:14;18.70;61.20
45329;DHT22;72636;48.160;11.428;2024-02-16T15:22:40;18.50;64.20